Brandreth, New York
Current Conditions -  °F | °C
As of 9:51 PM on Saturday 20 Dec 2014 (Local Time) from KSLK Reporting Station
Clear Clear  
Wind Chill:   Ceiling: Unl
Heat Index:   Visibility: 10mi
Dew Point:   Wind: 0mph
Humidity: 84%   Direction: NA
Pressure: 30.2"   Gusts: NA
Location:  43.9745°N, 74.5828°W
Report Text: KSLK 210251Z AUTO 00000KT 10SM CLR M14/M16 A3020 RMK AO2 SLP265 I3000 T11391161 53005
Loading
Personal Weather Stations






























Interactive Weather Map New forecast layout! Learn more

10-Day Weather Forecast

Advertisements
Track Severe Weather on mobile